Terminal Aerodrome Forecast
Issued by NWS Dodge City, KS

Home | Current Version | Previous Version | Graphics & Text | Print | Product List | Glossary Off
Versions: 1 2 3 4 5 6 7 8 9 10 11 12 13 14 15 16 17 18 19 20 21 22 23 24 25 26 27 28

753
FTUS43 KDDC 092327
TAFDDC
TAF
KDDC 092327Z 1000/1024 15007KT P6SM FEW200
     FM101200 17007KT P6SM BKN015
     FM101400 17007KT 3SM BR BKN008
     FM101700 18009KT 4SM BR SCT015
     FM101800 18010KT P6SM SCT015=

USA.gov is the U.S. government's official web portal to all federal, state and local government web resources and services.